createdAt,value
2023-05-21T00:00:27.422Z,17.29
2023-05-21T00:02:31.079Z,17.24
2023-05-21T00:04:35.892Z,17.00
2023-05-21T00:06:39.343Z,17.11
2023-05-21T00:08:43.123Z,17.10
2023-05-21T00:10:46.596Z,17.12
2023-05-21T00:12:49.977Z,17.11
2023-05-21T00:14:53.419Z,17.13
2023-05-21T00:16:56.761Z,17.12
2023-05-21T00:19:00.435Z,17.16
2023-05-21T00:21:05.536Z,17.12
2023-05-21T00:23:10.380Z,16.98
2023-05-21T00:25:13.988Z,17.17
2023-05-21T00:27:17.640Z,17.14
2023-05-21T00:29:21.436Z,17.12
2023-05-21T00:31:24.853Z,17.17
2023-05-21T00:33:29.379Z,17.13
2023-05-21T00:35:32.818Z,17.16
2023-05-21T00:37:38.126Z,17.09
2023-05-21T00:39:41.762Z,17.06
2023-05-21T00:41:46.649Z,17.02
2023-05-21T00:43:50.244Z,17.05
2023-05-21T00:45:56.256Z,17.05
2023-05-21T00:47:59.795Z,17.02
2023-05-21T00:50:06.348Z,16.97
2023-05-21T00:52:09.930Z,16.93
2023-05-21T00:54:14.720Z,16.88
2023-05-21T00:56:19.424Z,16.86
2023-05-21T00:58:23.618Z,16.89
2023-05-21T01:00:28.178Z,16.84
2023-05-21T01:02:34.610Z,16.75
2023-05-21T01:04:38.796Z,16.77
2023-05-21T01:06:42.611Z,16.82
2023-05-21T01:08:46.680Z,16.82
2023-05-21T01:10:51.874Z,16.76
2023-05-21T01:12:57.423Z,16.59
2023-05-21T01:15:01.503Z,16.77
2023-05-21T01:17:10.286Z,16.75
2023-05-21T01:19:17.665Z,16.71
2023-05-21T01:21:22.419Z,16.72
2023-05-21T01:23:28.236Z,16.70
2023-05-21T01:25:31.639Z,16.67
2023-05-21T01:27:35.003Z,16.56
2023-05-21T01:29:38.360Z,16.74
2023-05-21T01:31:53.173Z,16.63
2023-05-21T01:34:02.243Z,16.74
2023-05-21T01:36:16.012Z,16.43
2023-05-21T01:38:24.228Z,16.85
2023-05-21T01:40:35.807Z,16.85
2023-05-21T01:42:42.341Z,16.81
2023-05-21T01:44:47.026Z,16.62
2023-05-21T01:46:51.816Z,16.64
2023-05-21T01:48:57.282Z,16.56
2023-05-21T01:51:04.628Z,16.34
2023-05-21T01:53:08.197Z,16.57
2023-05-21T01:55:11.679Z,16.56
2023-05-21T01:57:17.028Z,16.51
2023-05-21T01:59:20.581Z,16.50
2023-05-21T02:01:24.147Z,16.43
2023-05-21T02:03:31.173Z,16.40
2023-05-21T02:05:35.417Z,16.36
2023-05-21T02:07:40.394Z,16.40
2023-05-21T02:09:43.875Z,16.31
2023-05-21T02:11:47.522Z,16.33
2023-05-21T02:13:52.436Z,16.30
2023-05-21T02:15:56.300Z,16.21
2023-05-21T02:18:00.598Z,16.19
2023-05-21T02:20:11.440Z,16.19
2023-05-21T02:22:14.922Z,16.19
2023-05-21T02:24:18.312Z,16.15
2023-05-21T02:26:22.912Z,16.13
2023-05-21T02:28:26.317Z,16.09
2023-05-21T02:30:31.323Z,16.06
2023-05-21T02:32:35.045Z,16.05
2023-05-21T02:34:42.346Z,16.01
2023-05-21T02:36:48.265Z,16.01
2023-05-21T02:38:51.687Z,16.01
2023-05-21T02:40:55.753Z,15.96
2023-05-21T02:43:00.524Z,16.02
2023-05-21T02:45:09.240Z,16.03
2023-05-21T02:47:15.550Z,16.06
2023-05-21T02:49:19.092Z,16.07
2023-05-21T02:51:24.133Z,16.06
2023-05-21T02:53:27.851Z,16.02
2023-05-21T02:55:31.286Z,15.96
2023-05-21T02:57:34.799Z,15.87
2023-05-21T02:59:38.268Z,15.93
2023-05-21T03:01:41.712Z,15.91
2023-05-21T03:03:46.638Z,15.87
2023-05-21T03:05:50.446Z,15.89
2023-05-21T03:07:55.298Z,15.91
2023-05-21T03:09:58.726Z,16.03
2023-05-21T03:12:02.129Z,16.05
2023-05-21T03:14:06.357Z,16.02
2023-05-21T03:16:09.764Z,15.99
2023-05-21T03:18:13.242Z,15.87
2023-05-21T03:20:18.944Z,15.87
2023-05-21T03:22:22.561Z,15.79
2023-05-21T03:24:26.324Z,15.80
2023-05-21T03:26:30.491Z,15.84
2023-05-21T03:28:36.041Z,15.84
2023-05-21T03:30:39.864Z,15.84
2023-05-21T03:33:16.758Z,15.82
2023-05-21T03:35:22.610Z,15.78
2023-05-21T03:37:26.203Z,15.78
2023-05-21T03:39:29.656Z,15.86
2023-05-21T03:41:33.921Z,15.88
2023-05-21T03:43:44.169Z,15.89
2023-05-21T03:45:47.538Z,15.91
2023-05-21T03:48:14.428Z,15.96
2023-05-21T03:50:18.022Z,15.97
2023-05-21T03:52:23.038Z,16.01
2023-05-21T03:54:26.715Z,16.04
2023-05-21T03:56:34.151Z,16.02
2023-05-21T03:58:38.465Z,16.06
2023-05-21T04:00:42.604Z,16.03
2023-05-21T04:02:46.160Z,15.98
2023-05-21T04:04:53.568Z,15.97
2023-05-21T04:06:57.141Z,15.94
2023-05-21T04:09:02.145Z,15.94
2023-05-21T04:11:06.456Z,15.84
2023-05-21T04:13:09.819Z,15.92
2023-05-21T04:15:14.450Z,15.90
2023-05-21T04:17:19.194Z,15.87
2023-05-21T04:19:22.881Z,15.85
2023-05-21T04:21:28.543Z,15.83
2023-05-21T04:23:32.014Z,15.81
2023-05-21T04:25:38.609Z,15.79
2023-05-21T04:27:42.664Z,15.77
2023-05-21T04:29:50.587Z,15.75
2023-05-21T04:31:54.376Z,15.76
2023-05-21T04:33:58.002Z,15.74
2023-05-21T04:36:01.407Z,15.73
2023-05-21T04:38:05.685Z,15.73
2023-05-21T04:40:10.649Z,15.76
2023-05-21T04:42:15.392Z,15.80
2023-05-21T04:44:18.776Z,15.91
2023-05-21T04:46:25.199Z,15.98
2023-05-21T04:48:29.033Z,15.98
2023-05-21T04:50:33.705Z,15.17
2023-05-21T04:52:37.283Z,16.01
2023-05-21T04:54:41.890Z,16.01
2023-05-21T04:56:45.368Z,15.98
2023-05-21T04:58:50.141Z,16.02
2023-05-21T05:00:53.823Z,16.02
2023-05-21T05:02:57.342Z,16.00
2023-05-21T05:05:00.862Z,16.00
2023-05-21T05:07:04.285Z,15.94
2023-05-21T05:09:07.632Z,15.91
2023-05-21T05:11:11.119Z,15.94
2023-05-21T05:13:14.632Z,15.92
2023-05-21T05:15:19.422Z,15.96
2023-05-21T05:17:24.617Z,16.04
2023-05-21T05:19:28.272Z,16.10
2023-05-21T05:21:31.855Z,16.04
2023-05-21T05:23:36.124Z,16.11
2023-05-21T05:25:39.809Z,16.22
2023-05-21T05:27:44.970Z,16.20
2023-05-21T05:29:49.200Z,16.18
2023-05-21T05:31:54.019Z,16.20
2023-05-21T05:33:58.293Z,16.18
2023-05-21T05:36:01.988Z,16.18
2023-05-21T05:38:05.854Z,16.17
2023-05-21T05:40:09.991Z,16.19
2023-05-21T05:42:13.397Z,16.16
2023-05-21T05:44:17.185Z,16.21
2023-05-21T05:46:21.358Z,16.15
2023-05-21T05:48:26.470Z,16.20
2023-05-21T05:50:30.007Z,16.17
2023-05-21T05:52:33.394Z,16.16
2023-05-21T05:54:36.802Z,16.21
2023-05-21T05:56:40.202Z,16.29
2023-05-21T05:58:43.681Z,16.30
2023-05-21T06:00:49.802Z,16.27
2023-05-21T06:02:53.601Z,15.79
2023-05-21T06:04:58.589Z,16.38
2023-05-21T06:07:02.506Z,16.38
2023-05-21T06:09:06.013Z,16.32
2023-05-21T06:11:09.576Z,16.34
2023-05-21T06:13:13.064Z,16.40
2023-05-21T06:15:16.610Z,16.43
2023-05-21T06:17:19.988Z,16.46
2023-05-21T06:19:27.964Z,16.51
2023-05-21T06:21:33.005Z,16.50
2023-05-21T06:23:37.714Z,16.53
2023-05-21T06:25:41.597Z,16.52
2023-05-21T06:27:45.511Z,16.48
2023-05-21T06:29:55.697Z,16.49
2023-05-21T06:31:59.115Z,16.55
2023-05-21T06:34:03.033Z,16.66
2023-05-21T06:36:07.186Z,16.78
2023-05-21T06:38:12.051Z,16.86
2023-05-21T06:40:16.021Z,16.90
2023-05-21T06:42:20.154Z,16.87
2023-05-21T06:44:31.915Z,16.98
2023-05-21T06:46:48.338Z,16.94
2023-05-21T06:48:51.950Z,16.82
2023-05-21T06:50:55.312Z,16.82
2023-05-21T06:52:58.825Z,16.89
2023-05-21T06:55:03.836Z,16.96
2023-05-21T06:57:24.886Z,17.09
2023-05-21T06:59:28.282Z,16.32
2023-05-21T07:01:32.547Z,17.16
2023-05-21T07:03:37.203Z,17.23
2023-05-21T07:05:40.712Z,17.28
2023-05-21T07:07:44.342Z,17.37
2023-05-21T07:09:47.752Z,17.48
2023-05-21T07:11:53.237Z,17.61
2023-05-21T07:14:00.422Z,17.34
2023-05-21T07:16:04.209Z,17.74
2023-05-21T07:18:07.844Z,17.44
2023-05-21T07:20:13.312Z,17.92
2023-05-21T07:22:21.836Z,18.02
2023-05-21T07:24:27.508Z,18.10
2023-05-21T07:26:31.262Z,18.09
2023-05-21T07:28:36.578Z,17.72
2023-05-21T07:30:39.962Z,17.97
2023-05-21T07:32:48.100Z,17.81
2023-05-21T07:34:54.181Z,17.91
2023-05-21T07:36:58.266Z,18.03
2023-05-21T07:39:01.679Z,18.12
2023-05-21T07:41:05.721Z,18.23
2023-05-21T07:43:09.323Z,18.26
2023-05-21T07:45:15.625Z,18.28
2023-05-21T07:47:23.446Z,18.30
2023-05-21T07:49:27.733Z,18.29
2023-05-21T07:51:31.377Z,18.32
2023-05-21T07:53:34.947Z,18.31
2023-05-21T07:55:47.566Z,18.36
2023-05-21T07:57:53.767Z,18.34
2023-05-21T08:00:04.454Z,18.36
2023-05-21T08:02:20.087Z,18.42
2023-05-21T08:04:23.711Z,18.54
2023-05-21T08:06:28.506Z,18.61
2023-05-21T08:08:31.981Z,18.55
2023-05-21T08:10:35.841Z,18.58
2023-05-21T08:12:39.228Z,18.59
2023-05-21T08:14:43.701Z,18.45
2023-05-21T08:16:49.542Z,18.66
2023-05-21T08:18:54.483Z,18.61
2023-05-21T08:20:58.677Z,18.63
2023-05-21T08:23:02.263Z,18.77
2023-05-21T08:25:12.847Z,18.75
2023-05-21T08:27:16.480Z,18.68
2023-05-21T08:29:20.148Z,18.77
2023-05-21T08:31:23.689Z,18.79
2023-05-21T08:33:28.692Z,18.76
2023-05-21T08:35:33.449Z,18.85
2023-05-21T08:37:45.188Z,18.84
2023-05-21T08:40:09.158Z,18.49
2023-05-21T08:42:35.710Z,18.79
2023-05-21T08:44:44.319Z,18.90
2023-05-21T08:46:51.114Z,19.04
2023-05-21T08:48:55.969Z,19.11
2023-05-21T08:51:02.600Z,19.27
2023-05-21T08:53:15.973Z,19.35
2023-05-21T08:55:27.924Z,19.39
2023-05-21T08:57:33.021Z,19.37
2023-05-21T08:59:39.922Z,19.40
2023-05-21T09:01:49.619Z,19.45
2023-05-21T09:04:12.245Z,19.52
2023-05-21T09:06:25.665Z,19.65
2023-05-21T09:08:33.117Z,19.76
2023-05-21T09:10:59.432Z,19.86
2023-05-21T09:13:08.790Z,19.87
2023-05-21T09:15:12.653Z,19.96
2023-05-21T09:17:16.305Z,20.00
2023-05-21T09:19:23.510Z,20.06
2023-05-21T09:21:30.104Z,20.17
2023-05-21T09:23:48.966Z,20.25
2023-05-21T09:25:52.928Z,20.22
2023-05-21T09:28:12.156Z,19.95
2023-05-21T09:30:20.406Z,20.16
2023-05-21T09:32:25.929Z,20.22
2023-05-21T09:34:29.357Z,20.32
2023-05-21T09:36:35.338Z,20.50
2023-05-21T09:38:39.507Z,20.60
2023-05-21T09:40:46.587Z,20.67
2023-05-21T09:42:53.457Z,20.79
2023-05-21T09:44:57.879Z,20.88
2023-05-21T09:47:03.020Z,20.98
2023-05-21T09:49:06.512Z,21.01
2023-05-21T09:51:16.061Z,21.02
2023-05-21T09:53:21.467Z,21.24
2023-05-21T09:55:26.525Z,21.24
2023-05-21T09:57:30.555Z,21.55
2023-05-21T09:59:37.721Z,21.65
2023-05-21T10:01:41.356Z,21.63
2023-05-21T10:03:50.687Z,21.77
2023-05-21T10:05:56.242Z,21.70
2023-05-21T10:08:01.789Z,22.08
2023-05-21T10:10:08.952Z,22.24
2023-05-21T10:12:12.761Z,22.32
2023-05-21T10:14:18.224Z,22.36
2023-05-21T10:16:21.679Z,22.24
2023-05-21T10:18:26.140Z,22.30
2023-05-21T10:20:30.619Z,22.38
2023-05-21T10:22:35.465Z,22.36
2023-05-21T10:24:40.651Z,22.47
2023-05-21T10:26:47.091Z,22.56
2023-05-21T10:28:52.155Z,22.51
2023-05-21T10:30:55.828Z,22.98
2023-05-21T10:33:00.636Z,23.10
2023-05-21T10:35:04.447Z,23.10
2023-05-21T10:37:09.604Z,23.04
2023-05-21T10:39:14.018Z,23.00
2023-05-21T10:41:19.852Z,22.78
2023-05-21T10:43:39.971Z,22.72
2023-05-21T10:46:00.395Z,22.81
2023-05-21T10:48:24.154Z,22.90
2023-05-21T10:50:55.469Z,22.99
2023-05-21T10:53:10.761Z,23.04
2023-05-21T10:55:28.229Z,22.87
2023-05-21T10:58:00.967Z,22.90
2023-05-21T11:00:09.066Z,22.78
2023-05-21T11:02:14.726Z,22.81
2023-05-21T11:04:19.231Z,22.70
2023-05-21T11:06:27.527Z,22.65
2023-05-21T11:08:35.421Z,22.77
2023-05-21T11:10:40.620Z,22.97
2023-05-21T11:13:08.818Z,23.23
2023-05-21T11:15:17.188Z,23.36
2023-05-21T11:17:40.024Z,23.61
2023-05-21T11:19:47.159Z,23.81
2023-05-21T11:21:56.217Z,23.97
2023-05-21T11:24:04.610Z,24.08
2023-05-21T11:26:08.642Z,24.03
2023-05-21T11:28:12.139Z,24.10
2023-05-21T11:30:20.182Z,24.14
2023-05-21T11:32:24.169Z,24.34
2023-05-21T11:34:29.229Z,24.57
2023-05-21T11:36:34.714Z,24.75
2023-05-21T11:38:39.481Z,24.79
2023-05-21T11:40:54.611Z,24.77
2023-05-21T11:42:58.372Z,24.75
2023-05-21T11:45:02.976Z,24.43
2023-05-21T11:47:09.262Z,24.86
2023-05-21T11:49:13.328Z,24.74
2023-05-21T11:51:16.781Z,24.52
2023-05-21T11:53:20.212Z,24.49
2023-05-21T11:55:25.875Z,24.47
2023-05-21T11:57:31.881Z,24.44
2023-05-21T11:59:35.418Z,24.47
2023-05-21T12:01:39.312Z,24.42
2023-05-21T12:03:44.105Z,24.59
2023-05-21T12:05:48.767Z,24.81
2023-05-21T12:07:52.504Z,24.88
2023-05-21T12:09:55.897Z,25.03
2023-05-21T12:11:59.256Z,25.09
2023-05-21T12:14:02.758Z,24.99
2023-05-21T12:16:07.296Z,25.05
2023-05-21T12:18:11.415Z,25.24
2023-05-21T12:20:17.507Z,25.37
2023-05-21T12:22:21.424Z,25.40
2023-05-21T12:24:25.243Z,25.49
2023-05-21T12:26:29.377Z,25.77
2023-05-21T12:28:33.000Z,25.82
2023-05-21T12:30:36.645Z,25.89
2023-05-21T12:32:44.147Z,25.92
2023-05-21T12:34:49.690Z,25.90
2023-05-21T12:36:54.435Z,25.68
2023-05-21T12:38:58.707Z,25.69
2023-05-21T12:41:05.126Z,25.72
2023-05-21T12:43:08.892Z,25.51
2023-05-21T12:45:12.870Z,25.15
2023-05-21T12:47:18.342Z,25.55
2023-05-21T12:49:35.476Z,25.56
2023-05-21T12:51:39.821Z,25.57
2023-05-21T12:53:45.034Z,25.56
2023-05-21T12:55:48.457Z,25.67
2023-05-21T12:57:51.900Z,25.77
2023-05-21T12:59:57.435Z,25.60
2023-05-21T13:02:01.669Z,25.59
2023-05-21T13:04:07.750Z,25.78
2023-05-21T13:06:11.302Z,26.09
2023-05-21T13:08:16.851Z,26.27
2023-05-21T13:10:21.516Z,26.05
2023-05-21T13:12:26.104Z,26.08
2023-05-21T13:14:29.435Z,26.01
2023-05-21T13:16:32.858Z,26.17
2023-05-21T13:18:36.496Z,26.44
2023-05-21T13:20:39.919Z,26.54
2023-05-21T13:22:46.696Z,26.19
2023-05-21T13:24:50.403Z,26.41
2023-05-21T13:26:55.474Z,26.29
2023-05-21T13:28:58.829Z,26.54
2023-05-21T13:31:02.383Z,26.85
2023-05-21T13:33:07.317Z,26.80
2023-05-21T13:35:11.973Z,27.05
2023-05-21T13:37:15.489Z,27.19
2023-05-21T13:39:19.318Z,27.16
2023-05-21T13:41:22.678Z,27.03
2023-05-21T13:43:28.554Z,26.85
2023-05-21T13:45:31.972Z,26.73
2023-05-21T13:47:38.500Z,26.40
2023-05-21T13:49:43.847Z,26.73
2023-05-21T13:51:47.178Z,26.87
2023-05-21T13:53:50.583Z,26.92
2023-05-21T13:55:53.957Z,27.08
2023-05-21T13:57:57.375Z,27.17
2023-05-21T14:00:02.445Z,27.08
2023-05-21T14:02:11.479Z,27.16
2023-05-21T14:04:15.342Z,27.26
2023-05-21T14:06:18.672Z,27.36
2023-05-21T14:08:23.570Z,27.55
2023-05-21T14:10:27.459Z,27.64
2023-05-21T14:12:31.093Z,27.62
2023-05-21T14:14:34.588Z,27.43
2023-05-21T14:16:39.417Z,27.17
2023-05-21T14:18:42.891Z,27.06
2023-05-21T14:20:46.558Z,27.04
2023-05-21T14:22:49.919Z,27.04
2023-05-21T14:24:53.677Z,27.07
2023-05-21T14:26:57.086Z,26.92
2023-05-21T14:29:00.654Z,26.89
2023-05-21T14:31:04.227Z,27.25
2023-05-21T14:33:08.962Z,27.44
2023-05-21T14:35:12.436Z,27.71
2023-05-21T14:37:15.781Z,27.90
2023-05-21T14:39:19.505Z,28.03
2023-05-21T14:41:26.426Z,27.81
2023-05-21T14:43:29.821Z,27.84
2023-05-21T14:45:35.409Z,27.89
2023-05-21T14:47:39.356Z,27.86
2023-05-21T14:49:44.240Z,27.84
2023-05-21T14:51:48.480Z,27.84
2023-05-21T14:53:52.110Z,27.96
2023-05-21T14:55:55.627Z,27.55
2023-05-21T14:57:59.000Z,28.34
2023-05-21T15:00:02.487Z,28.29
2023-05-21T15:02:06.316Z,28.33
2023-05-21T15:04:10.071Z,28.41
2023-05-21T15:06:14.965Z,28.37
2023-05-21T15:08:18.366Z,28.29
2023-05-21T15:10:21.696Z,28.26
2023-05-21T15:12:25.135Z,28.22
2023-05-21T15:14:28.517Z,28.20
2023-05-21T15:16:31.915Z,28.22
2023-05-21T15:18:35.394Z,28.29
2023-05-21T15:20:38.756Z,28.35
2023-05-21T15:22:43.997Z,28.27
2023-05-21T15:24:47.549Z,28.39
2023-05-21T15:26:50.885Z,28.46
2023-05-21T15:28:54.264Z,28.54
2023-05-21T15:30:57.688Z,28.25
2023-05-21T15:33:01.055Z,28.95
2023-05-21T15:35:04.724Z,29.08
2023-05-21T15:37:08.129Z,28.93
2023-05-21T15:39:12.954Z,28.63
2023-05-21T15:41:16.504Z,28.42
2023-05-21T15:43:19.915Z,28.52
2023-05-21T15:45:23.363Z,28.50
2023-05-21T15:47:26.881Z,28.45
2023-05-21T15:49:30.323Z,28.55
2023-05-21T15:51:33.701Z,28.55
2023-05-21T15:53:37.064Z,28.62
2023-05-21T15:55:41.825Z,28.58
2023-05-21T15:57:45.181Z,28.64
2023-05-21T15:59:50.355Z,28.65
2023-05-21T16:01:53.885Z,28.72
2023-05-21T16:03:57.292Z,28.78
2023-05-21T16:06:00.704Z,28.50
2023-05-21T16:08:06.078Z,28.45
2023-05-21T16:10:13.742Z,28.53
2023-05-21T16:12:18.655Z,28.64
2023-05-21T16:14:23.650Z,28.70
2023-05-21T16:16:27.108Z,28.61
2023-05-21T16:18:30.834Z,28.44
2023-05-21T16:20:35.358Z,28.28
2023-05-21T16:22:38.695Z,28.23
2023-05-21T16:24:42.240Z,28.25
2023-05-21T16:26:46.005Z,28.12
2023-05-21T16:28:50.716Z,28.01
2023-05-21T16:30:54.201Z,27.96
2023-05-21T16:32:57.719Z,27.85
2023-05-21T16:35:01.148Z,27.72
2023-05-21T16:37:04.593Z,27.54
2023-05-21T16:39:08.010Z,27.40
2023-05-21T16:41:11.625Z,27.51
2023-05-21T16:43:15.025Z,27.62
2023-05-21T16:45:21.366Z,27.47
2023-05-21T16:47:25.265Z,27.38
2023-05-21T16:49:28.897Z,27.37
2023-05-21T16:51:32.502Z,27.21
2023-05-21T16:53:35.881Z,27.26
2023-05-21T16:55:40.111Z,27.17
2023-05-21T16:57:43.685Z,27.10
2023-05-21T16:59:47.152Z,27.00
2023-05-21T17:01:52.066Z,26.94
2023-05-21T17:03:55.966Z,26.91
2023-05-21T17:05:59.805Z,26.86
2023-05-21T17:08:03.802Z,26.91
2023-05-21T17:10:08.392Z,26.80
2023-05-21T17:12:11.767Z,26.73
2023-05-21T17:14:23.284Z,26.60
2023-05-21T17:16:36.310Z,26.50
2023-05-21T17:18:41.358Z,26.26
2023-05-21T17:20:44.814Z,26.06
2023-05-21T17:22:48.178Z,26.25
2023-05-21T17:24:51.643Z,26.26
2023-05-21T17:26:55.084Z,26.21
2023-05-21T17:28:58.605Z,26.09
2023-05-21T17:31:02.318Z,26.03
2023-05-21T17:33:06.522Z,26.02
2023-05-21T17:35:11.513Z,25.76
2023-05-21T17:37:14.856Z,25.76
2023-05-21T17:39:18.283Z,25.69
2023-05-21T17:41:21.890Z,25.64
2023-05-21T17:43:26.698Z,25.61
2023-05-21T17:45:30.067Z,25.56
2023-05-21T17:47:34.547Z,25.50
2023-05-21T17:49:37.947Z,25.40
2023-05-21T17:51:43.867Z,25.25
2023-05-21T17:53:47.351Z,25.23
2023-05-21T17:55:50.796Z,25.20
2023-05-21T17:57:54.203Z,25.11
2023-05-21T17:59:57.695Z,25.07
2023-05-21T18:02:01.983Z,25.11
2023-05-21T18:04:09.006Z,25.13
2023-05-21T18:06:12.578Z,24.90
2023-05-21T18:08:17.646Z,24.80
2023-05-21T18:10:21.004Z,24.57
2023-05-21T18:12:24.369Z,23.91
2023-05-21T18:14:27.997Z,24.08
2023-05-21T18:16:31.576Z,23.88
2023-05-21T18:18:35.039Z,23.73
2023-05-21T18:20:38.721Z,23.50
2023-05-21T18:22:42.353Z,23.33
2023-05-21T18:24:47.099Z,23.25
2023-05-21T18:26:50.575Z,23.13
2023-05-21T18:28:54.025Z,23.10
2023-05-21T18:31:00.812Z,23.13
2023-05-21T18:33:04.240Z,23.12
2023-05-21T18:35:10.629Z,23.08
2023-05-21T18:37:14.903Z,23.01
2023-05-21T18:39:18.503Z,23.01
2023-05-21T18:41:23.985Z,22.79
2023-05-21T18:43:27.430Z,22.86
2023-05-21T18:45:30.919Z,22.73
2023-05-21T18:47:34.498Z,22.64
2023-05-21T18:49:37.972Z,22.52
2023-05-21T18:51:41.816Z,22.48
2023-05-21T18:53:45.456Z,22.51
2023-05-21T18:55:48.826Z,22.42
2023-05-21T18:57:53.594Z,22.29
2023-05-21T18:59:59.552Z,22.32
2023-05-21T19:02:05.417Z,22.25
2023-05-21T19:04:09.274Z,22.23
2023-05-21T19:06:12.639Z,22.14
2023-05-21T19:08:16.210Z,22.12
2023-05-21T19:10:19.771Z,22.05
2023-05-21T19:12:23.556Z,22.03
2023-05-21T19:14:28.568Z,22.02
2023-05-21T19:16:32.081Z,21.99
2023-05-21T19:18:35.614Z,22.00
2023-05-21T19:20:39.210Z,21.90
2023-05-21T19:22:42.860Z,21.93
2023-05-21T19:24:46.984Z,21.31
2023-05-21T19:26:50.328Z,21.86
2023-05-21T19:28:54.525Z,21.88
2023-05-21T19:30:59.759Z,21.85
2023-05-21T19:33:03.215Z,21.79
2023-05-21T19:35:07.817Z,21.89
2023-05-21T19:37:11.157Z,21.88
2023-05-21T19:39:14.518Z,21.91
2023-05-21T19:41:18.599Z,21.91
2023-05-21T19:43:22.054Z,21.86
2023-05-21T19:45:25.847Z,21.82
2023-05-21T19:47:32.205Z,21.79
2023-05-21T19:49:35.784Z,21.74
2023-05-21T19:51:39.259Z,21.66
2023-05-21T19:53:42.644Z,21.59
2023-05-21T19:55:45.985Z,21.53
2023-05-21T19:57:49.665Z,21.48
2023-05-21T19:59:52.989Z,21.45
2023-05-21T20:01:56.846Z,21.47
2023-05-21T20:04:01.661Z,21.48
2023-05-21T20:10:11.646Z,21.47
2023-05-21T20:12:16.158Z,21.52
2023-05-21T20:14:19.507Z,21.51
2023-05-21T20:16:23.319Z,21.50
2023-05-21T20:20:34.649Z,21.47
2023-05-21T20:22:38.117Z,21.47
2023-05-21T20:24:41.489Z,21.49
2023-05-21T20:26:44.921Z,21.50
2023-05-21T20:28:48.310Z,21.44
2023-05-21T20:30:57.555Z,21.63
2023-05-21T20:33:01.877Z,21.68
2023-05-21T20:35:06.413Z,21.77
2023-05-21T20:37:11.319Z,21.84
2023-05-21T20:39:15.446Z,21.96
2023-05-21T20:41:19.988Z,22.02
2023-05-21T20:43:24.333Z,22.09
2023-05-21T20:45:29.600Z,22.11
2023-05-21T20:47:33.848Z,22.01
2023-05-21T20:49:38.283Z,22.15
2023-05-21T20:51:41.618Z,22.18
2023-05-21T20:53:47.033Z,22.14
2023-05-21T20:55:52.485Z,22.13
2023-05-21T20:57:56.060Z,22.13
2023-05-21T20:59:59.436Z,22.12
2023-05-21T21:02:02.942Z,22.12
2023-05-21T21:04:06.793Z,22.04
2023-05-21T21:06:10.510Z,21.96
2023-05-21T21:08:16.028Z,21.91
2023-05-21T21:10:20.893Z,21.83
2023-05-21T21:12:26.700Z,21.90
2023-05-21T21:14:31.996Z,21.89
2023-05-21T21:16:35.704Z,21.76
2023-05-21T21:18:39.170Z,21.69
2023-05-21T21:20:42.709Z,21.64
2023-05-21T21:22:46.418Z,21.61
2023-05-21T21:24:49.800Z,21.55
2023-05-21T21:26:54.502Z,21.52
2023-05-21T21:28:59.373Z,21.49
2023-05-21T21:31:02.922Z,21.41
2023-05-21T21:33:06.516Z,21.35
2023-05-21T21:35:11.005Z,21.35
2023-05-21T21:37:14.333Z,21.36
2023-05-21T21:39:17.959Z,21.36
2023-05-21T21:41:22.454Z,21.32
2023-05-21T21:43:27.162Z,21.38
2023-05-21T21:45:30.816Z,21.37
2023-05-21T21:47:34.572Z,21.47
2023-05-21T21:49:37.892Z,21.47
2023-05-21T21:51:41.684Z,21.44
2023-05-21T21:53:45.026Z,21.37
2023-05-21T21:55:48.753Z,21.31
2023-05-21T21:57:52.226Z,21.36
2023-05-21T21:59:56.911Z,21.44
2023-05-21T22:02:00.712Z,21.44
2023-05-21T22:04:04.275Z,21.43
2023-05-21T22:06:07.972Z,21.39
2023-05-21T22:08:11.444Z,21.38
2023-05-21T22:10:15.871Z,21.40
2023-05-21T22:12:19.455Z,21.40
2023-05-21T22:14:23.225Z,21.30
2023-05-21T22:16:28.989Z,21.52
2023-05-21T22:18:40.853Z,21.52
2023-05-21T22:20:46.051Z,21.47
2023-05-21T22:22:49.594Z,21.52
2023-05-21T22:24:52.970Z,21.56
2023-05-21T22:26:56.444Z,21.61
2023-05-21T22:29:00.305Z,21.67
2023-05-21T22:31:03.823Z,21.69
2023-05-21T22:33:08.668Z,21.70
2023-05-21T22:35:12.494Z,21.63
2023-05-21T22:37:15.828Z,21.67
2023-05-21T22:39:19.316Z,21.65
2023-05-21T22:41:22.828Z,21.59
2023-05-21T22:43:26.715Z,21.45
2023-05-21T22:45:30.245Z,21.54
2023-05-21T22:47:36.893Z,21.48
2023-05-21T22:49:41.728Z,21.43
2023-05-21T22:51:46.340Z,21.37
2023-05-21T22:53:49.754Z,21.32
2023-05-21T22:55:53.148Z,21.33
2023-05-21T22:57:56.590Z,21.28
2023-05-21T23:00:00.059Z,21.27
2023-05-21T23:02:03.653Z,21.25
2023-05-21T23:04:07.207Z,21.18
2023-05-21T23:06:12.398Z,20.89
2023-05-21T23:08:15.771Z,21.13
2023-05-21T23:10:19.293Z,21.12
2023-05-21T23:12:22.748Z,21.12
2023-05-21T23:14:26.168Z,21.09
2023-05-21T23:16:30.863Z,21.07
2023-05-21T23:18:34.330Z,21.01
2023-05-21T23:20:40.778Z,21.02
2023-05-21T23:22:46.045Z,20.99
2023-05-21T23:24:49.433Z,20.95
2023-05-21T23:26:56.564Z,20.71
2023-05-21T23:29:00.144Z,20.93
2023-05-21T23:31:03.584Z,20.67
2023-05-21T23:33:07.383Z,20.99
2023-05-21T23:35:11.612Z,20.99
2023-05-21T23:37:15.246Z,21.02
2023-05-21T23:39:19.991Z,21.05
2023-05-21T23:41:24.022Z,21.04
2023-05-21T23:43:27.459Z,21.02
2023-05-21T23:45:30.978Z,20.42
2023-05-21T23:47:35.545Z,21.07
2023-05-21T23:49:39.897Z,21.16
2023-05-21T23:51:43.486Z,21.17
2023-05-21T23:53:46.901Z,21.18
2023-05-21T23:55:51.639Z,21.19
2023-05-21T23:57:55.228Z,21.16
2023-05-21T23:59:58.917Z,21.20
